createdAt,value
2019-01-26T00:01:24.902Z,8.85
2019-01-26T00:04:10.392Z,8.08
2019-01-26T00:07:20.143Z,8.30
2019-01-26T00:10:15.468Z,8.68
2019-01-26T00:13:29.795Z,6.97
2019-01-26T00:16:26.192Z,7.20
2019-01-26T00:19:20.757Z,7.17
2019-01-26T00:22:08.389Z,8.25
2019-01-26T00:25:07.525Z,9.03
2019-01-26T00:27:54.160Z,7.05
2019-01-26T00:30:43.492Z,7.05
2019-01-26T00:33:43.246Z,6.62
2019-01-26T00:36:37.989Z,5.72
2019-01-26T00:39:28.534Z,6.67
2019-01-26T00:42:12.315Z,6.30
2019-01-26T00:44:57.230Z,7.47
2019-01-26T00:47:48.412Z,7.72
2019-01-26T00:50:38.366Z,5.78
2019-01-26T00:53:33.328Z,7.40
2019-01-26T00:56:34.558Z,7.45
2019-01-26T00:59:27.914Z,7.20
2019-01-26T01:02:13.129Z,7.72
2019-01-26T01:04:54.344Z,5.97
2019-01-26T01:07:42.970Z,7.40
2019-01-26T01:10:41.436Z,6.45
2019-01-26T01:13:27.174Z,7.08
2019-01-26T01:16:27.476Z,5.87
2019-01-26T01:19:04.366Z,6.03
2019-01-26T01:21:48.007Z,6.80
2019-01-26T01:24:28.932Z,5.73
2019-01-26T01:27:15.373Z,8.40
2019-01-26T01:30:44.118Z,9.10
2019-01-26T01:33:28.474Z,7.65
2019-01-26T01:36:34.043Z,8.45
2019-01-26T01:40:07.477Z,6.35
2019-01-26T01:43:14.176Z,8.00
2019-01-26T01:46:03.613Z,9.23
2019-01-26T01:48:49.508Z,5.53
2019-01-26T01:51:50.120Z,4.87
2019-01-26T01:54:30.817Z,5.93
2019-01-26T01:57:46.488Z,6.83
2019-01-26T02:00:22.920Z,5.92
2019-01-26T02:03:30.372Z,4.95
2019-01-26T02:06:35.137Z,6.17
2019-01-26T02:09:21.038Z,6.17
2019-01-26T02:12:23.724Z,5.78
2019-01-26T02:15:30.370Z,4.47
2019-01-26T02:18:14.978Z,5.62
2019-01-26T02:21:01.528Z,4.67
2019-01-26T02:24:05.400Z,4.90
2019-01-26T02:27:00.642Z,5.67
2019-01-26T02:29:58.856Z,5.10
2019-01-26T02:32:45.840Z,5.20
2019-01-26T02:35:49.078Z,5.78
2019-01-26T02:38:33.723Z,5.13
2019-01-26T02:42:04.559Z,5.33
2019-01-26T02:43:59.090Z,5.85
2019-01-26T02:46:58.115Z,5.50
2019-01-26T02:49:44.695Z,4.25
2019-01-26T02:52:49.590Z,5.53
2019-01-26T02:55:39.744Z,3.75
2019-01-26T02:58:29.821Z,4.72
2019-01-26T03:01:17.710Z,4.55
2019-01-26T03:04:27.021Z,4.13
2019-01-26T03:07:08.414Z,4.80
2019-01-26T03:10:02.708Z,5.33
2019-01-26T03:13:05.988Z,5.58
2019-01-26T03:16:06.319Z,6.83
2019-01-26T03:19:02.037Z,4.92
2019-01-26T03:22:00.284Z,5.40
2019-01-26T03:25:13.233Z,5.10
2019-01-26T03:28:01.567Z,4.97
2019-01-26T03:31:02.116Z,5.30
2019-01-26T03:33:59.824Z,6.53
2019-01-26T03:37:05.423Z,4.70
2019-01-26T03:39:49.467Z,4.90
2019-01-26T03:42:58.759Z,5.25
2019-01-26T03:45:48.117Z,5.72
2019-01-26T03:48:30.260Z,5.60
2019-01-26T03:51:40.843Z,4.72
2019-01-26T03:54:36.450Z,4.55
2019-01-26T03:58:11.899Z,5.12
2019-01-26T04:24:14.367Z,4.92
2019-01-26T04:38:47.974Z,6.55
2019-01-26T04:41:55.889Z,4.60
2019-01-26T04:44:36.608Z,5.40
2019-01-26T04:47:19.518Z,5.47
2019-01-26T04:49:55.458Z,8.13
2019-01-26T04:52:40.628Z,5.53
2019-01-26T04:55:20.792Z,5.00
2019-01-26T04:58:06.465Z,6.45
2019-01-26T05:00:52.602Z,6.42
2019-01-26T05:03:29.987Z,9.20
2019-01-26T05:06:09.089Z,14.75
2019-01-26T05:08:47.184Z,10.58
2019-01-26T05:11:39.906Z,7.80
2019-01-26T05:27:30.192Z,11.97
2019-01-26T05:30:47.194Z,8.50
2019-01-26T05:35:49.602Z,6.67
2019-01-26T05:37:50.196Z,13.65
2019-01-26T05:40:26.695Z,7.05
2019-01-26T05:43:03.818Z,9.60
2019-01-26T05:45:40.725Z,7.03
2019-01-26T05:48:16.756Z,7.65
2019-01-26T05:50:53.185Z,11.08
2019-01-26T05:53:29.485Z,6.72
2019-01-26T05:56:05.576Z,6.90
2019-01-26T05:58:41.396Z,13.83
2019-01-26T06:01:17.796Z,5.05
2019-01-26T06:03:54.117Z,8.60
2019-01-26T06:06:30.648Z,8.30
2019-01-26T06:09:08.996Z,6.47
2019-01-26T06:11:45.660Z,10.75
2019-01-26T06:14:22.232Z,7.28
2019-01-26T06:16:58.991Z,6.58
2019-01-26T06:19:35.097Z,6.03
2019-01-26T06:22:11.390Z,9.98
2019-01-26T06:24:48.055Z,9.03
2019-01-26T06:27:24.825Z,5.17
2019-01-26T06:30:01.753Z,6.15
2019-01-26T06:32:38.389Z,5.87
2019-01-26T06:35:14.350Z,7.08
2019-01-26T06:37:50.992Z,5.08
2019-01-26T06:40:27.896Z,6.75
2019-01-26T06:43:04.873Z,5.75
2019-01-26T06:45:41.108Z,6.75
2019-01-26T06:48:17.727Z,5.30
2019-01-26T06:50:54.172Z,5.30
2019-01-26T06:53:30.224Z,7.00
2019-01-26T06:56:06.301Z,5.62
2019-01-26T06:58:42.345Z,7.12
2019-01-26T07:01:18.081Z,6.75
2019-01-26T07:03:54.817Z,7.05
2019-01-26T07:06:38.414Z,7.65
2019-01-26T07:09:14.625Z,7.75
2019-01-26T07:11:50.929Z,6.72
2019-01-26T07:14:28.064Z,9.83
2019-01-26T07:17:04.824Z,11.08
2019-01-26T07:19:40.915Z,7.62
2019-01-26T07:22:17.086Z,7.97
2019-01-26T07:24:53.460Z,7.17
2019-01-26T07:27:29.368Z,8.75
2019-01-26T07:30:08.645Z,6.58
2019-01-26T07:32:44.834Z,13.78
2019-01-26T07:35:21.830Z,13.22
2019-01-26T07:37:57.846Z,8.25
2019-01-26T07:40:34.447Z,9.80
2019-01-26T07:43:10.553Z,9.20
2019-01-26T07:45:47.007Z,8.50
2019-01-26T07:48:24.216Z,6.70
2019-01-26T07:51:01.216Z,9.85
2019-01-26T07:53:37.587Z,11.57
2019-01-26T07:56:13.861Z,7.87
2019-01-26T07:58:49.938Z,14.75
2019-01-26T08:01:27.168Z,8.08
2019-01-26T08:04:05.194Z,7.63
2019-01-26T08:06:41.365Z,13.32
2019-01-26T08:09:17.327Z,12.07
2019-01-26T08:11:53.812Z,13.93
2019-01-26T08:14:29.719Z,10.30
2019-01-26T08:17:05.605Z,21.02
2019-01-26T08:19:42.615Z,11.20
2019-01-26T08:22:19.260Z,11.03
2019-01-26T08:24:55.525Z,9.70
2019-01-26T08:27:31.247Z,9.35
2019-01-26T08:30:12.759Z,18.87
2019-01-26T08:32:50.575Z,24.20
2019-01-26T08:35:29.827Z,14.60
2019-01-26T08:38:06.301Z,14.03
2019-01-26T08:40:42.385Z,21.02
2019-01-26T08:43:23.131Z,20.45
2019-01-26T08:45:59.704Z,14.98
2019-01-26T08:48:35.493Z,16.50
2019-01-26T08:51:12.492Z,15.95
2019-01-26T08:53:48.553Z,13.53
2019-01-26T08:56:25.536Z,14.90
2019-01-26T08:59:02.549Z,8.93
2019-01-26T09:01:38.401Z,10.65
2019-01-26T09:04:22.902Z,15.32
2019-01-26T09:07:02.083Z,14.83
2019-01-26T09:09:41.197Z,11.85
2019-01-26T09:12:18.488Z,12.03
2019-01-26T09:14:55.321Z,11.68
2019-01-26T09:17:32.429Z,13.13
2019-01-26T09:23:38.099Z,13.85
2019-01-26T09:26:36.130Z,16.00
2019-01-26T09:29:42.645Z,9.23
2019-01-26T09:32:27.960Z,12.40
2019-01-26T09:35:11.824Z,14.75
2019-01-26T09:37:48.715Z,13.35
2019-01-26T09:40:27.798Z,7.47
2019-01-26T09:43:11.621Z,12.25
2019-01-26T09:46:05.559Z,10.30
2019-01-26T09:48:47.652Z,14.95
2019-01-26T09:51:34.507Z,7.70
2019-01-26T09:54:12.292Z,11.95
2019-01-26T09:57:04.036Z,11.35
2019-01-26T09:59:48.553Z,12.05
2019-01-26T10:02:27.212Z,15.28
2019-01-26T10:05:09.835Z,12.30
2019-01-26T10:07:48.672Z,12.43
2019-01-26T10:10:25.933Z,11.23
2019-01-26T10:13:03.125Z,8.13
2019-01-26T10:15:40.322Z,12.82
2019-01-26T10:18:16.810Z,10.53
2019-01-26T10:20:59.589Z,9.80
2019-01-26T10:23:37.631Z,12.30
2019-01-26T10:26:21.834Z,9.17
2019-01-26T10:28:58.884Z,8.87
2019-01-26T10:31:34.856Z,13.30
2019-01-26T10:34:11.411Z,9.93
2019-01-26T10:36:59.606Z,17.70
2019-01-26T10:39:36.637Z,8.27
2019-01-26T10:42:25.549Z,7.35
2019-01-26T10:45:04.067Z,8.05
2019-01-26T10:47:41.076Z,8.53
2019-01-26T10:50:17.701Z,7.00
2019-01-26T10:52:55.253Z,10.95
2019-01-26T10:55:36.942Z,10.45
2019-01-26T10:58:17.432Z,8.65
2019-01-26T11:00:53.460Z,19.55
2019-01-26T11:03:31.011Z,12.45
2019-01-26T11:06:06.875Z,13.55
2019-01-26T11:08:43.352Z,10.68
2019-01-26T11:11:21.377Z,14.28
2019-01-26T11:14:10.307Z,10.13
2019-01-26T11:16:42.949Z,8.53
2019-01-26T11:19:19.409Z,11.28
2019-01-26T11:21:55.971Z,10.75
2019-01-26T11:24:33.677Z,8.50
2019-01-26T11:27:14.555Z,6.55
2019-01-26T11:29:51.460Z,9.43
2019-01-26T11:32:30.293Z,11.05
2019-01-26T11:35:08.521Z,10.45
2019-01-26T11:37:46.487Z,9.03
2019-01-26T11:40:24.504Z,6.47
2019-01-26T11:43:00.834Z,10.30
2019-01-26T11:46:02.554Z,8.73
2019-01-26T11:48:44.965Z,7.42
2019-01-26T11:51:31.394Z,6.12
2019-01-26T11:54:08.138Z,11.95
2019-01-26T11:57:09.309Z,9.10
2019-01-26T11:59:46.811Z,6.33
2019-01-26T12:02:30.044Z,10.90
2019-01-26T12:05:30.452Z,11.68
2019-01-26T12:08:06.449Z,9.08
2019-01-26T12:10:42.360Z,6.70
2019-01-26T12:13:19.032Z,7.33
2019-01-26T12:15:57.392Z,6.85
2019-01-26T12:18:33.601Z,5.35
2019-01-26T12:21:11.248Z,7.15
2019-01-26T12:23:50.021Z,9.15
2019-01-26T12:26:32.547Z,5.70
2019-01-26T12:29:13.792Z,9.30
2019-01-26T12:32:02.498Z,9.60
2019-01-26T12:34:40.965Z,4.45
2019-01-26T12:37:20.682Z,8.73
2019-01-26T12:40:21.638Z,4.62
2019-01-26T12:43:02.908Z,6.17
2019-01-26T12:45:39.168Z,7.83
2019-01-26T12:48:21.640Z,5.47
2019-01-26T12:51:10.551Z,6.28
2019-01-26T12:54:20.271Z,4.80
2019-01-26T12:57:22.495Z,5.03
2019-01-26T13:00:45.831Z,6.03
2019-01-26T13:06:21.268Z,6.22
2019-01-26T13:09:11.176Z,5.30
2019-01-26T13:11:56.072Z,6.28
2019-01-26T13:14:37.600Z,5.72
2019-01-26T13:17:24.648Z,6.42
2019-01-26T13:20:05.036Z,5.97
2019-01-26T13:22:49.201Z,3.25
2019-01-26T13:25:31.629Z,4.47
2019-01-26T13:28:11.221Z,6.90
2019-01-26T13:30:49.926Z,6.00
2019-01-26T13:33:31.044Z,5.78
2019-01-26T13:36:13.514Z,5.53
2019-01-26T13:38:54.661Z,4.70
2019-01-26T13:41:44.748Z,5.15
2019-01-26T13:44:21.058Z,5.00
2019-01-26T13:47:02.084Z,5.30
2019-01-26T13:49:44.163Z,3.70
2019-01-26T13:52:25.557Z,4.75
2019-01-26T13:55:03.851Z,3.12
2019-01-26T13:57:48.417Z,5.80
2019-01-26T14:00:27.678Z,5.87
2019-01-26T14:03:09.749Z,5.35
2019-01-26T14:05:46.337Z,3.52
2019-01-26T14:08:22.655Z,5.45
2019-01-26T14:11:00.656Z,7.45
2019-01-26T14:13:37.435Z,5.00
2019-01-26T14:16:14.328Z,4.25
2019-01-26T14:18:50.725Z,5.08
2019-01-26T14:21:27.403Z,5.58
2019-01-26T14:24:03.619Z,4.37
2019-01-26T14:26:39.796Z,3.15
2019-01-26T14:29:15.632Z,3.52
2019-01-26T14:31:52.614Z,5.90
2019-01-26T14:34:28.949Z,3.87
2019-01-26T14:37:05.480Z,3.35
2019-01-26T14:39:41.272Z,3.60
2019-01-26T14:42:17.771Z,3.83
2019-01-26T14:44:54.220Z,4.97
2019-01-26T14:47:30.433Z,3.08
2019-01-26T14:50:08.332Z,3.98
2019-01-26T14:52:43.998Z,3.77
2019-01-26T14:55:22.171Z,3.95
2019-01-26T14:57:59.944Z,6.85
2019-01-26T15:00:36.182Z,3.40
2019-01-26T15:03:12.956Z,6.92
2019-01-26T15:05:49.609Z,5.10
2019-01-26T15:08:26.205Z,5.28
2019-01-26T15:11:02.347Z,5.17
2019-01-26T15:13:39.553Z,5.45
2019-01-26T15:16:16.245Z,6.50
2019-01-26T15:18:52.597Z,6.17
2019-01-26T15:21:28.753Z,8.38
2019-01-26T15:24:05.705Z,8.30
2019-01-26T15:26:42.176Z,8.45
2019-01-26T15:29:19.350Z,6.58
2019-01-26T15:31:55.573Z,3.45
2019-01-26T15:34:31.977Z,6.90
2019-01-26T15:37:08.396Z,7.47
2019-01-26T15:39:44.776Z,8.40
2019-01-26T15:42:21.032Z,8.55
2019-01-26T15:44:58.285Z,6.33
2019-01-26T15:47:34.717Z,8.98
2019-01-26T15:50:13.234Z,8.98
2019-01-26T15:52:49.980Z,7.92
2019-01-26T15:55:26.159Z,11.68
2019-01-26T15:58:01.955Z,5.55
2019-01-26T16:00:44.054Z,8.55
2019-01-26T16:03:20.252Z,10.75
2019-01-26T16:05:56.745Z,5.62
2019-01-26T16:08:32.843Z,7.90
2019-01-26T16:11:09.975Z,4.50
2019-01-26T16:13:46.567Z,9.88
2019-01-26T16:16:22.840Z,6.60
2019-01-26T16:18:59.193Z,7.17
2019-01-26T16:21:34.984Z,7.00
2019-01-26T16:24:11.608Z,9.55
2019-01-26T16:26:47.474Z,6.03
2019-01-26T16:29:23.787Z,5.22
2019-01-26T16:32:00.278Z,5.05
2019-01-26T16:34:36.880Z,8.03
2019-01-26T16:37:13.074Z,8.73
2019-01-26T16:39:50.011Z,10.68
2019-01-26T16:42:26.216Z,9.03
2019-01-26T16:45:03.255Z,9.65
2019-01-26T16:47:40.117Z,9.88
2019-01-26T16:50:27.564Z,8.23
2019-01-26T16:53:00.621Z,8.10
2019-01-26T16:55:36.891Z,4.97
2019-01-26T16:58:13.577Z,8.68
2019-01-26T17:00:52.489Z,5.12
2019-01-26T17:03:28.677Z,8.13
2019-01-26T17:06:04.904Z,9.63
2019-01-26T17:08:41.614Z,8.30
2019-01-26T17:11:18.352Z,8.68
2019-01-26T17:13:55.371Z,10.38
2019-01-26T17:16:32.019Z,8.50
2019-01-26T17:19:07.784Z,8.88
2019-01-26T17:21:43.413Z,6.15
2019-01-26T17:24:19.454Z,6.83
2019-01-26T17:26:55.975Z,9.88
2019-01-26T17:29:32.484Z,5.83
2019-01-26T17:32:08.769Z,7.08
2019-01-26T17:34:45.124Z,6.03
2019-01-26T17:37:21.736Z,5.70
2019-01-26T17:39:58.326Z,6.30
2019-01-26T17:42:36.532Z,5.80
2019-01-26T17:45:15.815Z,8.30
2019-01-26T17:47:54.487Z,11.05
2019-01-26T17:50:32.636Z,12.47
2019-01-26T17:53:10.730Z,5.90
2019-01-26T17:55:47.457Z,6.53
2019-01-26T17:58:24.418Z,5.00
2019-01-26T18:01:01.720Z,7.95
2019-01-26T18:03:39.701Z,5.67
2019-01-26T18:06:16.481Z,9.48
2019-01-26T18:08:52.340Z,6.87
2019-01-26T18:11:28.817Z,6.00
2019-01-26T18:14:04.717Z,6.10
2019-01-26T18:16:40.768Z,6.80
2019-01-26T18:19:17.282Z,4.60
2019-01-26T18:21:53.649Z,4.60
2019-01-26T18:24:30.052Z,5.30
2019-01-26T18:27:06.008Z,4.42
2019-01-26T18:29:43.262Z,7.45
2019-01-26T18:32:20.949Z,5.72
2019-01-26T18:34:57.921Z,3.98
2019-01-26T18:37:34.633Z,6.47
2019-01-26T18:40:15.052Z,5.33
2019-01-26T18:42:51.112Z,5.08
2019-01-26T18:45:27.522Z,4.30
2019-01-26T18:48:03.929Z,3.47
2019-01-26T18:50:42.724Z,4.55
2019-01-26T18:53:19.169Z,4.97
2019-01-26T18:55:55.533Z,4.25
2019-01-26T18:58:31.217Z,4.62
2019-01-26T19:01:07.667Z,5.92
2019-01-26T19:04:06.270Z,5.08
2019-01-26T19:06:42.598Z,6.20
2019-01-26T19:09:18.452Z,6.25
2019-01-26T19:11:55.323Z,5.28
2019-01-26T19:14:32.143Z,7.78
2019-01-26T19:17:08.472Z,7.67
2019-01-26T19:19:45.342Z,7.90
2019-01-26T19:22:21.418Z,8.33
2019-01-26T19:24:57.269Z,10.65
2019-01-26T19:27:34.346Z,7.30
2019-01-26T19:30:13.106Z,5.95
2019-01-26T19:32:49.970Z,7.60
2019-01-26T19:35:26.851Z,6.97
2019-01-26T19:38:03.493Z,7.92
2019-01-26T19:40:40.773Z,5.62
2019-01-26T19:43:19.058Z,7.75
2019-01-26T19:45:56.592Z,4.92
2019-01-26T19:48:32.376Z,10.15
2019-01-26T19:51:09.988Z,10.03
2019-01-26T19:53:46.724Z,6.35
2019-01-26T19:56:23.728Z,6.70
2019-01-26T19:58:59.917Z,10.35
2019-01-26T20:01:36.729Z,8.60
2019-01-26T20:04:13.291Z,7.05
2019-01-26T20:06:49.057Z,7.78
2019-01-26T20:09:25.063Z,5.65
2019-01-26T20:12:01.063Z,4.50
2019-01-26T20:14:37.703Z,7.15
2019-01-26T20:17:14.095Z,6.55
2019-01-26T20:19:50.017Z,8.28
2019-01-26T20:22:26.605Z,8.38
2019-01-26T20:25:02.945Z,6.17
2019-01-26T20:27:39.584Z,4.85
2019-01-26T20:30:19.263Z,4.12
2019-01-26T20:32:55.559Z,6.15
2019-01-26T20:35:31.885Z,6.12
2019-01-26T20:38:08.003Z,4.28
2019-01-26T20:40:44.388Z,5.08
2019-01-26T20:43:21.341Z,4.00
2019-01-26T20:45:58.145Z,6.47
2019-01-26T20:48:34.493Z,7.30
2019-01-26T20:51:11.150Z,5.42
2019-01-26T20:53:47.749Z,5.75
2019-01-26T20:56:23.952Z,7.28
2019-01-26T20:59:00.038Z,5.17
2019-01-26T21:01:36.865Z,5.28
2019-01-26T21:04:13.897Z,5.45
2019-01-26T21:06:50.088Z,4.33
2019-01-26T21:09:25.783Z,5.50
2019-01-26T21:12:03.271Z,4.87
2019-01-26T21:14:39.283Z,5.53
2019-01-26T21:17:15.677Z,4.35
2019-01-26T21:19:52.595Z,5.53
2019-01-26T21:22:28.997Z,4.78
2019-01-26T21:25:05.774Z,3.37
2019-01-26T21:27:42.604Z,4.12
2019-01-26T21:30:21.812Z,5.12
2019-01-26T21:32:58.875Z,4.80
2019-01-26T21:35:34.804Z,9.78
2019-01-26T21:38:11.679Z,27.90
2019-01-26T21:40:48.469Z,60.75
2019-01-26T21:43:24.809Z,50.73
2019-01-26T21:46:00.885Z,36.15
2019-01-26T21:48:37.878Z,40.78
2019-01-26T21:51:14.359Z,31.35
2019-01-26T21:53:51.084Z,35.60
2019-01-26T21:56:26.743Z,36.68
2019-01-26T21:59:03.233Z,22.73
2019-01-26T22:01:39.610Z,21.37
2019-01-26T22:04:16.499Z,24.25
2019-01-26T22:06:52.884Z,24.10
2019-01-26T22:09:29.293Z,11.93
2019-01-26T22:12:05.915Z,17.85
2019-01-26T22:14:42.132Z,7.62
2019-01-26T22:17:18.619Z,7.55
2019-01-26T22:19:55.273Z,9.03
2019-01-26T22:22:31.137Z,7.50
2019-01-26T22:25:10.577Z,6.00
2019-01-26T22:27:46.756Z,7.00
2019-01-26T22:30:28.382Z,5.10
2019-01-26T22:33:05.197Z,5.58
2019-01-26T22:35:41.988Z,5.60
2019-01-26T22:38:18.357Z,5.50
2019-01-26T22:40:54.977Z,6.20
2019-01-26T22:43:31.264Z,6.97
2019-01-26T22:46:08.248Z,4.80
2019-01-26T22:48:44.405Z,5.67
2019-01-26T22:51:20.539Z,4.45
2019-01-26T22:53:56.197Z,6.72
2019-01-26T22:56:32.601Z,5.50
2019-01-26T22:59:09.555Z,5.93
2019-01-26T23:01:46.592Z,8.30
2019-01-26T23:04:58.413Z,5.80
2019-01-26T23:07:53.680Z,6.83
2019-01-26T23:11:07.054Z,4.73
2019-01-26T23:14:10.772Z,5.87
2019-01-26T23:17:24.564Z,5.27
2019-01-26T23:21:00.371Z,4.67
2019-01-26T23:24:26.465Z,5.43
2019-01-26T23:27:56.901Z,7.90
2019-01-26T23:30:58.341Z,12.83
2019-01-26T23:33:35.033Z,11.93
2019-01-26T23:36:11.347Z,9.30
2019-01-26T23:38:47.521Z,7.70
2019-01-26T23:41:23.806Z,6.97
2019-01-26T23:44:01.358Z,7.23
2019-01-26T23:46:37.234Z,9.43
2019-01-26T23:49:13.465Z,4.27
2019-01-26T23:51:49.369Z,5.67
2019-01-26T23:54:37.368Z,5.83
2019-01-26T23:57:13.941Z,4.67
2019-01-26T23:59:50.252Z,5.13
